Ana Sayfa
METAR-TAF:

METAR-TAF

Havaalanları :

Ipoh, Malezya

Enlem: 04-34-09N, Boylam: 101-05-35E, yükseklik: 40 m

Güncel hava durumu gözlemi

Rapor saat 09:00 UTC de 1 saat ve 9 dakika önce yapıldı.
Rüzgar değişken yönden 3 kt
Sıcaklık 34°C
Nem 53%
Basınç 1006 hPa
Görüş mesafesi 10 km veya daha fazla
1700 ft yükseklikte az bulutlu, Kümülonimbus.
2000 ft yükseklikte parçalı bulutlu

METAR: WMKI 250900Z VRB03KT 9999 FEW017CB SCT020 34/23 Q1006

Saat: 18:09 (10:09 UTC)

Tahmin

Rapor saat 05:00 UTC de 5 saat ve 9 dakika önce yapıldı.
Ayın 25'si saat 06 UTC'den ayın 26'si saat 06 UTC'ye kadar geçerli Tahmin
Rüzgar doğu/kuzeydoğudan 8 kt
Görüş mesafesi 10 km veya daha fazla
2000 ft yükseklikte az bulutlu
Geçici
ayın 25'si saat 08 UTC'den ayın 25'si saat 11 UTC'ye kadar
Rüzgar batıdan 10 kt

TAF: WMKI 250500Z 2506/2606 06008KT 9999 FEW020 TEMPO 2508/2511 26010KT

4.000'den fazla havaalanı için hava durumu gözlemleri ve tahminleri (METAR ve TAF raporları).

Kullanılabilir istasyonlar harita üzerinde sarı ve kırmızı noktalarla gösterilir.

İstasyonun adını görmek için fareyi noktanın üzerinde gezdirin.

Sonrasında hava gözlem ve tahminlerini görmek için tıklayın.

Haritayı değiştirmek için: yaklaştırmak için siyah artı işaretli yeşil düğmeye ve uzaklaştırmak için de eksi işaretli düğmeye hızla tıklayın; bitişik haritalar için yeşil okları kullanın.


METAR-TAF: